< < Back
Terminal Aerodrome Forecast


Current Version              Previous Versions:   1  2  3  4  5  6  7  8  9  

Terminal Aerodrome Forecast

498
FTUS42 KILM 261700 CCA
TAFFLO
TAF COR
KFLO 261722Z 2618/2718 35012KT P6SM BKN012
     FM270300 34006KT P6SM SCT020 BKN140
      TEMPO 2708/2712 4SM BR SCT002
     FM271300 03007KT P6SM SCT250=



Latest METAR

372
SAUS70 KWBC 270600 RRJ
MTRFLO
METAR KFLO 270553Z AUTO 36003KT 10SM CLR 01/M01 A3017 RMK AO2 SLP216
T00111006 10044 20011 55000


USA.gov is the U.S. government's official web portal to all federal, state and local government web resources and services.